AirNav   Bose ProFlight Series 2 Headset
 
 2014 users online  

6MN9 Benson Airport
White Bear Township, Minnesota, USA

GOING TO WHITE BEAR TOWNSHIP?


FAA INFORMATION EFFECTIVE 02 JANUARY 2020

Location

FAA Identifier: 6MN9
Lat/Long: 45-06-59.8800N 092-59-45.7820W
45-06.998000N 092-59.763033W
45.1166333,-92.9960506
(estimated)
Elevation: 942 ft. / 287 m (estimated)
Variation: 03E (1985)
From city: 3 miles N of WHITE BEAR TOWNSHIP, MN
Time zone: UTC -6 (UTC -5 during Daylight Saving Time)
Zip code: 55110

Airport Operations

Airport use: Private use. Permission required prior to landing
Activation date: 08/1945
Control tower: no
ARTCC: MINNEAPOLIS CENTER
FSS: PRINCETON FLIGHT SERVICE STATION
Attendance: 0900-DUSK
NO GLIDER ACTIVITY
Wind indicator: yes
Segmented circle: no
Lights: FOR LIRL RWY 12/30 CALL 651-429-0315.
Beacon: white-green (lighted land airport)
FOR ROTG BCN CALL 651-429-0315.

Airport Communications

UNICOM: 122.7
WX AWOS-3 at ANE (9 nm W): 120.625 (763-780-9025)
WX AWOS-3 at 21D (9 nm SE): 120.075 (651-779-5949)
WX ASOS at STP (11 nm S): 118.35 (651-312-8888)
WX ASOS at MIC (16 nm W): PHONE 763-531-2343
WX AWOS-3 at SGS (16 nm S): 119.425 (651-457-8120)
WX ASOS at MSP (17 nm SW): 135.35 (612-713-4174)
WX AWOS-3 at OEO (17 nm NE): 119.925 (715-294-3845)
WX AWOS-3 at RNH (19 nm E): 120.0 (715-246-3202)

Nearby radio navigation aids

VOR radial/distance  VOR name  Freq  Var
GEPr090/16.1GOPHER VORTAC117.3006E
MSPr036/16.7MINNEAPOLIS VOR/DME115.3002E
FCMr046/25.8FLYING CLOUD VOR/DME117.7001E
FGTr009/30.2FARMINGTON VORTAC115.7006E

 
NDB name  Hdg/Dist  Freq  Var  ID
HOPEY348/14.840003EPPI .--. .--. ..
CAMBRIDGE156/28.735001ECBG -.-. -... --.
RUSH CITY181/34.828202EROS .-. --- ...
PRINCETON133/37.336803EPNM .--. -. --

Airport Services

Fuel available: 100LL
Parking: hangars
Airframe service: MAJOR
Bottled oxygen: NONE
Bulk oxygen: NONE

Runway Information

Runway 12/30

Dimensions: 2000 x 75 ft. / 610 x 23 m
Surface: turf
RUNWAY 12  RUNWAY 30
Traffic pattern: leftleft
Obstructions: tree, 600 ft. from runway, 16:1 slope to cleartrees, 70 ft. from runway, 1:1 slope to clear

Airport Ownership and Management from official FAA records

Ownership: Privately-owned
Owner: WHITE BEAR TOWNSHIP
1281 HAMMOND RD
WHITE BEAR TOWNSHIP, MN 55110
Phone 651-747-2750
Manager: PATRICK CHRISTOPHERSON
1281 HAMMOND RD
WHITE BEAR TOWNSHIP, MN 55110
Phone 651-295-1572

Airport Operational Statistics

Aircraft based on the field: 25
Single engine airplanes: 25
    
Aircraft operations: avg 88/week
78% local general aviation
22% transient general aviation

Additional Remarks

NO NIGHT OPERATIONS.
FOR CD CTC MINNEAPOLIS ARTCC AT 651-463-5588.

Instrument Procedures

There are no published instrument procedures at 6MN9.

Some nearby airports with instrument procedures:

KANE - Anoka County-Blaine Airport (Janes Field) (9 nm W)
21D - Lake Elmo Airport (9 nm SE)
KSTP - St Paul Downtown Airport Holman Field (11 nm S)
KMIC - Crystal Airport (16 nm W)
KSGS - South St Paul Municipal Airport-Richard E Fleming Field (16 nm S)
KMSP - Minneapolis-St Paul International/Wold-Chamberlain Airport (17 nm SW)
KOEO - L O Simenstad Municipal Airport (17 nm NE)
KRNH - New Richmond Regional Airport (19 nm E)
 
Loc | Ops | Rwys | IFR | FBO | Links
Com | Nav | Svcs | Stats | Notes
Area around 6MN9 (Benson Airport)
 
Road maps at: MapQuest Bing Google
 
Aerial photo
WARNING: Photo may not be current or correct
Aerial photo of 6MN9 (Benson Airport)
Do you have a better or more recent aerial photo of Benson Airport that you would like to share? If so, please send us your photo.

 
Sectional chart

 
Airport distance calculator
Flying to Benson Airport? Find the distance to fly.

From to 6MN9

Sunrise and sunset
Times for 24-Jan-2020
 Local
(UTC-6)
 Zulu
(UTC)
Morning civil twilight07:0913:09
Sunrise07:4113:41
Sunset17:0723:07
Evening civil twilight17:3923:39

Current date and time
Zulu (UTC)  24-Jan-2020 21:15:20
Local (UTC-6)  24-Jan-2020 15:15:20
 
METAR
K21D 
9nm SE 
242056Z AUTO 00000KT 5SM -SN OVC009 00/00 A2997 RMK AO2
KANE 
9nm W 
242045Z 34008KT 10SM BKN011 OVC018 01/M01 A2997
KSTP 
11nm S 
242053Z AUTO 33009KT 8SM BKN012 OVC033 00/M02 A2998 RMK AO2 SNE25 SLP159 P0000 60000 T00001022 56005
KMIC 
15nm W 
242053Z 35008KT 10SM OVC013 00/M03 A2997 RMK AO2 SLP158 T00001033 56013
KOEO 
17nm NE 
242055Z AUTO 34007KT 10SM OVC013 01/00 A2999 RMK AO2 60003 T00100000 PWINO
KMSP 
17nm SW 
242053Z 34008KT 7SM -SN SCT012 OVC020 00/M03 A2997 RMK AO2 SLP159 P0000 60000 T00001028 56006
KSGS 
17nm S 
242056Z AUTO 34005KT 10SM BKN010 00/M01 A2997 RMK AO2 T00001012
KRNH 
20nm E 
242055Z AUTO 34006KT 5SM -SN OVC013 01/M01 A2996 RMK AO2 P0001 60003 T00071015
TAF
KMSP 
17nm SW 
241720Z 2418/2524 35008G16KT P6SM BKN009 OVC012 FM242100 35007KT 3SM -SN BR OVC009 FM250100 33007KT 6SM BR OVC006
KRNH 
20nm E 
241720Z 2418/2518 36007KT 2SM -SN BR OVC007 FM250000 34005KT P6SM -SN OVC012 FM250600 31005KT 4SM BR OVC007
NOTAMs
Click for the latest NOTAMs
NOTAMs are issued by the DoD/FAA and will open in a separate window not controlled by AirNav.

 

 
 

Would you like to see your business listed on this page?

 If your business provides an interesting product or service to pilots, flight crews, aircraft, or users of the Benson Airport, you should consider listing it here.  To start the listing process, click on the button below
 
Add a business
 

Other Pages about Benson Airport

Update a link
 
Copyright © AirNav, LLC. All rights reserved. Privacy Policy  Contact